CheckWX is a tool to help pilots better visualize weather data.  It is not intended as a substitute for an official pre-flight weather briefing.

12:04:28 UTC

EHAK METAR
A12-cpp Sea
A12-cpp Sea, The Netherlands
Current

39 mins ago

EHAK 251125Z AUTO 35033KT 9999 FEW015/// SCT018/// BKN023/// 08/05 Q1023 W///H///
Observed
Mar-25 @ 11:25 UTC
Wind
  • 350° at 33 KTS
Visibility
10,000+ meters
Flight Rules
MVFR
Cloud Levels
  • Few at 1,500' AGL
  • Scattered at 1,800' AGL
  • Broken at 2,300' AGL
Temperature
C / 46°F
Dewpoint
C / 41°F
Humidity
82%
Altimeter
30.21" Hg
Pressure
1022.92 hPa
Previous

1 hour ago

EHAK 251055Z AUTO 35031KT 9999 SCT016/// BKN019/// BKN025/// 07/05 Q1023 W///H///
Observed
Mar-25 @ 10:55 UTC
Wind
  • 350° at 31 KTS
Visibility
10,000+ meters
Flight Rules
MVFR
Cloud Levels
  • Scattered at 1,600' AGL
  • Broken at 1,900' AGL
  • Broken at 2,500' AGL
Temperature
C / 45°F
Dewpoint
C / 41°F
Humidity
87%
Altimeter
30.21" Hg
Pressure
1022.92 hPa
Previous

2 hours ago

EHAK 251025Z AUTO 35032KT 9999 FEW016/// 07/04 Q1022 W///H///
Observed
Mar-25 @ 10:25 UTC
Wind
  • 350° at 32 KTS
Visibility
10,000+ meters
Flight Rules
VFR
Cloud Levels
  • Few at 1,600' AGL
Temperature
C / 45°F
Dewpoint
C / 39°F
Humidity
81%
Altimeter
30.18" Hg
Pressure
1021.92 hPa